MSC Maria Saveria — 3FLE8 — position and weather

sailwx.info

Track history (hours):
 
Tides and Currents Weather Stations Pressure Air Temp Water Temp Dewpoint Dewpoint Depression Visibility Wind Speed Wind Dir Waves Ship Positions

MSC Maria Saveria

Last reported at 2016-May-01 13:03 UTC. Time now 2016-May-01 15:33 UTC.
Position N 38°28' E 008°46'.

Length 366 m; draft 13.8 m.

Type: Ship (hazmat cat A). MMSI: 372400000.

Date/timePositionNaut miles runAvg speedWind from/ knotsBaromVisibWave heightAir tempDewpointWater temp
2016-May-01 13:03N 38°28' E 008°46'917.6
2016-May-01 12:32N 38°26' E 008°35'41717.4
2016-Apr-30 12:33N 36°48' E 000°04'4117.6
2016-Apr-30 10:15N 36°38' W 000°46'22217.5
2016-Apr-29 21:33N 35°59' W 005°16'20914.5
2016-Apr-29 07:06N 37°31' W 009°11'1019.0
2016-Apr-29 06:33N 37°40' W 009°04'1817.8
2016-Apr-29 05:33N 37°55' W 008°51'1 1.4
2016-Apr-29 04:31N 37°56' W 008°51'0 0.0
2016-Apr-29 03:31N 37°56' W 008°51'0 0.0
2016-Apr-29 02:31N 37°56' W 008°51'0 0.0
2016-Apr-29 01:31N 37°56' W 008°51'0 0.0
2016-Apr-29 00:31N 37°56' W 008°51'0 0.0
2016-Apr-28 23:28N 37°56' W 008°51'0 0.0
2016-Apr-28 22:28N 37°56' W 008°51'0 0.0
2016-Apr-28 21:31N 37°56' W 008°51'0 0.0
2016-Apr-28 20:31N 37°56' W 008°51'0 0.0
2016-Apr-28 19:31N 37°56' W 008°51'0 0.0
2016-Apr-28 18:31N 37°56' W 008°51'1 0.6
2016-Apr-28 17:33N 37°55' W 008°50'5 5.3
2016-Apr-28 16:33N 37°56' W 008°57'1413.9
2016-Apr-28 15:33N 38°04' W 009°11'1717.5
2016-Apr-28 14:33N 38°14' W 009°29'1818.0
2016-Apr-28 13:33N 38°25' W 009°48'1717.4
2016-Apr-28 12:33N 38°36' W 010°04'1918.1
2016-Apr-28 11:32N 38°55' W 010°07'71317.8
2016-Apr-26 19:33N 49°48' W 003°24'1818.3
2016-Apr-26 18:33N 49°57' W 002°59'1917.9
2016-Apr-26 17:29N 50°02' W 002°30'5819.8
2016-Apr-26 14:33N 49°46' W 001°04'2120.9
2016-Apr-26 13:34N 49°38' W 000°34'1918.8
2016-Apr-26 12:34N 49°31' W 000°07'1110.7
2016-Apr-26 11:32N 49°27' E 000°09'0 0.3
2016-Apr-26 10:32N 49°28' E 000°09'0 0.0
2016-Apr-26 09:32N 49°28' E 000°09'0 0.0
2016-Apr-26 08:32N 49°28' E 000°09'0 0.0
2016-Apr-26 07:32N 49°28' E 000°09'0 0.0
2016-Apr-26 06:32N 49°28' E 000°09'0 0.0
2016-Apr-26 05:32N 49°28' E 000°09'0 0.0
2016-Apr-26 04:32N 49°28' E 000°09'0 0.0
2016-Apr-26 03:32N 49°28' E 000°09'0 0.0
2016-Apr-26 02:33N 49°28' E 000°09'9 9.4
2016-Apr-26 01:34N 49°31' W 000°05'7 7.1
2016-Apr-26 00:34N 49°36' W 000°12'8 8.0
2016-Apr-25 23:34N 49°44' W 000°11'8 7.9
2016-Apr-25 22:34N 49°52' W 000°09'8 7.9
2016-Apr-25 21:34N 49°60' W 000°08'8 7.9
2016-Apr-25 20:33N 50°08' W 000°07'8 7.9
2016-Apr-25 19:34N 50°16' W 000°05'8 7.9
2016-Apr-25 18:33N 50°24' W 000°04'7 7.3
2016-Apr-25 17:33N 50°30' E 000°02'8 8.2
2016-Apr-25 16:34N 50°32' E 000°14'8 8.2
2016-Apr-25 15:33N 50°35' E 000°26'9 8.6
2016-Apr-25 14:33N 50°38' E 000°39'20 8.5
2016-Apr-25 12:10N 50°51' E 001°03'5 8.4
2016-Apr-25 11:34N 50°54' E 001°09'8 8.4
2016-Apr-25 10:34N 50°60' E 001°19'8 8.5
2016-Apr-25 09:34N 51°05' E 001°30'1413.7
2016-Apr-25 08:33N 51°14' E 001°47'1312.6
2016-Apr-25 07:33N 51°24' E 001°59'7 7.4
2016-Apr-25 06:33N 51°22' E 002°10'9 8.8
2016-Apr-25 05:34N 51°22' E 002°24'9 8.7
2016-Apr-25 04:33N 51°23' E 002°38'10 9.8
2016-Apr-25 03:33N 51°25' E 002°53'1616.0
2016-Apr-25 02:33N 51°24' E 003°19'1111.1
2016-Apr-25 01:33N 51°26' E 003°37'1111.3
2016-Apr-25 00:34N 51°21' E 003°53'8 8.5
2016-Apr-24 23:34N 51°22' E 004°06'7 6.9
2016-Apr-24 22:34N 51°21' E 004°17'0 0.0
2016-Apr-24 21:34N 51°21' E 004°17'2 1.7
2016-Apr-24 20:30N 51°19' E 004°19'0 0.0
2016-Apr-24 19:28N 51°19' E 004°19'0 0.0
2016-Apr-24 18:33N 51°19' E 004°19'0 0.0
2016-Apr-24 17:33N 51°19' E 004°19'0 0.0
2016-Apr-24 16:33N 51°19' E 004°19'0 0.0
2016-Apr-24 15:33N 51°19' E 004°19'0 0.0
2016-Apr-24 14:31N 51°19' E 004°19'0 0.0
2016-Apr-24 13:33N 51°19' E 004°19'0 0.0
2016-Apr-24 12:33N 51°19' E 004°19'0 0.0
2016-Apr-24 11:33N 51°19' E 004°19'0 0.0
2016-Apr-24 10:34N 51°19' E 004°19'0 0.0
2016-Apr-24 09:33N 51°19' E 004°19'0 0.0
2016-Apr-24 08:33N 51°19' E 004°19'0 0.0
2016-Apr-24 07:33N 51°19' E 004°19'0 0.0
2016-Apr-24 06:34N 51°19' E 004°19'0 0.0
2016-Apr-24 05:33N 51°19' E 004°19'0 0.0
2016-Apr-24 04:33N 51°19' E 004°19'0 0.0
2016-Apr-24 03:33N 51°19' E 004°19'0 0.0
2016-Apr-24 02:33N 51°19' E 004°19'0 0.0
2016-Apr-24 01:33N 51°19' E 004°19'0 0.0
2016-Apr-24 00:33N 51°19' E 004°19'0 0.0
2016-Apr-23 23:33N 51°19' E 004°19'0 0.0
2016-Apr-23 22:33N 51°19' E 004°19'0 0.0
2016-Apr-23 21:33N 51°19' E 004°19'0 0.0
2016-Apr-23 20:33N 51°19' E 004°19'0 0.0
2016-Apr-23 19:33N 51°19' E 004°19'0 0.0
2016-Apr-23 18:33N 51°19' E 004°19'1 1.3
2016-Apr-23 17:33N 51°20' E 004°18'0 0.5
2016-Apr-23 16:34N 51°21' E 004°17'1 0.8
2016-Apr-23 15:33N 51°21' E 004°16'7 7.2
2016-Apr-23 14:33N 51°22' E 004°05'7 6.9
2016-Apr-23 13:33N 51°21' E 003°54'1111.0
2016-Apr-23 12:34N 51°26' E 003°38'1212.0
2016-Apr-23 11:34N 51°24' E 003°19'1212.3
2016-Apr-23 10:33N 51°27' E 002°59'1817.6
2016-Apr-23 09:33N 51°42' E 003°13'6 6.1
2016-Apr-23 08:33N 51°48' E 003°16'1514.3
2016-Apr-23 07:32N 52°02' E 003°21'2019.9
2016-Apr-23 06:33N 52°21' E 003°26'4118.8
2016-Apr-23 04:23N 52°56' E 004°00'1619.3
2016-Apr-23 03:33N 53°07' E 004°20'2419.7
2016-Apr-23 02:22N 53°28' E 004°38'1822.6
2016-Apr-23 01:33N 53°35' E 005°06'2222.3
2016-Apr-23 00:33N 53°42' E 005°42'2221.5
2016-Apr-22 23:33N 53°49' E 006°16'2020.5
2016-Apr-22 22:33N 53°54' E 006°50'2019.8
2016-Apr-22 21:33N 53°58' E 007°23'2019.7
2016-Apr-22 20:33N 54°01' E 007°56'1312.8
2016-Apr-22 19:34N 53°60' E 008°18'1716.6
2016-Apr-22 18:34N 53°53' E 008°43'1716.5
2016-Apr-22 17:34N 53°53' E 009°11'1515.2
2016-Apr-22 16:34N 53°42' E 009°30'1110.9
2016-Apr-22 15:33N 53°34' E 009°42'8 7.7
2016-Apr-22 14:33N 53°32' E 009°54'0 0.0
2016-Apr-22 13:33N 53°32' E 009°54'0 0.0
2016-Apr-22 12:33N 53°32' E 009°54'0 0.0
2016-Apr-22 11:33N 53°32' E 009°54'0 0.0
2016-Apr-22 10:33N 53°32' E 009°54'0 0.0
2016-Apr-22 09:33N 53°32' E 009°54'0 0.0
2016-Apr-22 08:33N 53°32' E 009°54'0 0.0
2016-Apr-22 07:33N 53°32' E 009°54'0 0.0
2016-Apr-22 06:33N 53°32' E 009°54'0 0.0
2016-Apr-22 05:33N 53°32' E 009°54'0 0.0
2016-Apr-22 04:33N 53°32' E 009°54'0 0.0
2016-Apr-22 03:33N 53°32' E 009°54'0 0.0
2016-Apr-22 02:33N 53°32' E 009°54'0 0.0
2016-Apr-22 01:33N 53°32' E 009°54'0 0.0
2016-Apr-22 00:33N 53°32' E 009°54'0 0.0
2016-Apr-21 23:33N 53°32' E 009°54'0 0.0
2016-Apr-21 22:33N 53°32' E 009°54'0 0.0
2016-Apr-21 21:33N 53°32' E 009°54'0 0.0
2016-Apr-21 20:33N 53°32' E 009°54'0 0.0
2016-Apr-21 19:33N 53°32' E 009°54'0 0.0
2016-Apr-21 18:33N 53°32' E 009°54'0 0.0
2016-Apr-21 17:33N 53°32' E 009°54'0 0.0
2016-Apr-21 16:33N 53°32' E 009°54'3 3.0
2016-Apr-21 15:33N 53°33' E 009°49'8 8.3
2016-Apr-21 14:33N 53°36' E 009°36'1110.5
2016-Apr-21 13:33N 53°44' E 009°26'  
Track history (hours):
 
Tides and Currents Weather Stations Pressure Air Temp Water Temp Dewpoint Dewpoint Depression Visibility Wind Speed Wind Dir Waves Ship Positions

MSC Maria Saveria

Last reported at 2016-May-01 13:03 UTC. Time now 2016-May-01 15:33 UTC.
Position N 38°28' E 008°46'.

Length 366 m; draft 13.8 m.

Type: Ship (hazmat cat A). MMSI: 372400000.

Date/timePositionNaut miles runAvg speedWind from/ knotsBaromVisibWave heightAir tempDewpointWater temp
2016-May-01 13:03N 38°28' E 008°46'917.6
2016-May-01 12:32N 38°26' E 008°35'41717.4
2016-Apr-30 12:33N 36°48' E 000°04'4117.6
2016-Apr-30 10:15N 36°38' W 000°46'22217.5
2016-Apr-29 21:33N 35°59' W 005°16'20914.5
2016-Apr-29 07:06N 37°31' W 009°11'1019.0
2016-Apr-29 06:33N 37°40' W 009°04'1817.8
2016-Apr-29 05:33N 37°55' W 008°51'1 1.4
2016-Apr-29 04:31N 37°56' W 008°51'0 0.0
2016-Apr-29 03:31N 37°56' W 008°51'0 0.0
2016-Apr-29 02:31N 37°56' W 008°51'0 0.0
2016-Apr-29 01:31N 37°56' W 008°51'0 0.0
2016-Apr-29 00:31N 37°56' W 008°51'0 0.0
2016-Apr-28 23:28N 37°56' W 008°51'0 0.0
2016-Apr-28 22:28N 37°56' W 008°51'0 0.0
2016-Apr-28 21:31N 37°56' W 008°51'0 0.0
2016-Apr-28 20:31N 37°56' W 008°51'0 0.0
2016-Apr-28 19:31N 37°56' W 008°51'0 0.0
2016-Apr-28 18:31N 37°56' W 008°51'1 0.6
2016-Apr-28 17:33N 37°55' W 008°50'5 5.3
2016-Apr-28 16:33N 37°56' W 008°57'1413.9
2016-Apr-28 15:33N 38°04' W 009°11'1717.5
2016-Apr-28 14:33N 38°14' W 009°29'1818.0
2016-Apr-28 13:33N 38°25' W 009°48'1717.4
2016-Apr-28 12:33N 38°36' W 010°04'1918.1
2016-Apr-28 11:32N 38°55' W 010°07'71317.8
2016-Apr-26 19:33N 49°48' W 003°24'1818.3
2016-Apr-26 18:33N 49°57' W 002°59'1917.9
2016-Apr-26 17:29N 50°02' W 002°30'5819.8
2016-Apr-26 14:33N 49°46' W 001°04'2120.9
2016-Apr-26 13:34N 49°38' W 000°34'1918.8
2016-Apr-26 12:34N 49°31' W 000°07'1110.7
2016-Apr-26 11:32N 49°27' E 000°09'0 0.3
2016-Apr-26 10:32N 49°28' E 000°09'0 0.0
2016-Apr-26 09:32N 49°28' E 000°09'0 0.0
2016-Apr-26 08:32N 49°28' E 000°09'0 0.0
2016-Apr-26 07:32N 49°28' E 000°09'0 0.0
2016-Apr-26 06:32N 49°28' E 000°09'0 0.0
2016-Apr-26 05:32N 49°28' E 000°09'0 0.0
2016-Apr-26 04:32N 49°28' E 000°09'0 0.0
2016-Apr-26 03:32N 49°28' E 000°09'0 0.0
2016-Apr-26 02:33N 49°28' E 000°09'9 9.4
2016-Apr-26 01:34N 49°31' W 000°05'7 7.1
2016-Apr-26 00:34N 49°36' W 000°12'8 8.0
2016-Apr-25 23:34N 49°44' W 000°11'8 7.9
2016-Apr-25 22:34N 49°52' W 000°09'8 7.9
2016-Apr-25 21:34N 49°60' W 000°08'8 7.9
2016-Apr-25 20:33N 50°08' W 000°07'8 7.9
2016-Apr-25 19:34N 50°16' W 000°05'8 7.9
2016-Apr-25 18:33N 50°24' W 000°04'7 7.3
2016-Apr-25 17:33N 50°30' E 000°02'8 8.2
2016-Apr-25 16:34N 50°32' E 000°14'8 8.2
2016-Apr-25 15:33N 50°35' E 000°26'9 8.6
2016-Apr-25 14:33N 50°38' E 000°39'20 8.5
2016-Apr-25 12:10N 50°51' E 001°03'5 8.4
2016-Apr-25 11:34N 50°54' E 001°09'8 8.4
2016-Apr-25 10:34N 50°60' E 001°19'8 8.5
2016-Apr-25 09:34N 51°05' E 001°30'1413.7
2016-Apr-25 08:33N 51°14' E 001°47'1312.6
2016-Apr-25 07:33N 51°24' E 001°59'7 7.4
2016-Apr-25 06:33N 51°22' E 002°10'9 8.8
2016-Apr-25 05:34N 51°22' E 002°24'9 8.7
2016-Apr-25 04:33N 51°23' E 002°38'10 9.8
2016-Apr-25 03:33N 51°25' E 002°53'1616.0
2016-Apr-25 02:33N 51°24' E 003°19'1111.1
2016-Apr-25 01:33N 51°26' E 003°37'1111.3
2016-Apr-25 00:34N 51°21' E 003°53'8 8.5
2016-Apr-24 23:34N 51°22' E 004°06'7 6.9
2016-Apr-24 22:34N 51°21' E 004°17'0 0.0
2016-Apr-24 21:34N 51°21' E 004°17'2 1.7
2016-Apr-24 20:30N 51°19' E 004°19'0 0.0
2016-Apr-24 19:28N 51°19' E 004°19'0 0.0
2016-Apr-24 18:33N 51°19' E 004°19'0 0.0
2016-Apr-24 17:33N 51°19' E 004°19'0 0.0
2016-Apr-24 16:33N 51°19' E 004°19'0 0.0
2016-Apr-24 15:33N 51°19' E 004°19'0 0.0
2016-Apr-24 14:31N 51°19' E 004°19'0 0.0
2016-Apr-24 13:33N 51°19' E 004°19'0 0.0
2016-Apr-24 12:33N 51°19' E 004°19'0 0.0
2016-Apr-24 11:33N 51°19' E 004°19'0 0.0
2016-Apr-24 10:34N 51°19' E 004°19'0 0.0
2016-Apr-24 09:33N 51°19' E 004°19'0 0.0
2016-Apr-24 08:33N 51°19' E 004°19'0 0.0
2016-Apr-24 07:33N 51°19' E 004°19'0 0.0
2016-Apr-24 06:34N 51°19' E 004°19'0 0.0
2016-Apr-24 05:33N 51°19' E 004°19'0 0.0
2016-Apr-24 04:33N 51°19' E 004°19'0 0.0
2016-Apr-24 03:33N 51°19' E 004°19'0 0.0
2016-Apr-24 02:33N 51°19' E 004°19'0 0.0
2016-Apr-24 01:33N 51°19' E 004°19'0 0.0
2016-Apr-24 00:33N 51°19' E 004°19'0 0.0
2016-Apr-23 23:33N 51°19' E 004°19'0 0.0
2016-Apr-23 22:33N 51°19' E 004°19'0 0.0
2016-Apr-23 21:33N 51°19' E 004°19'0 0.0
2016-Apr-23 20:33N 51°19' E 004°19'0 0.0
2016-Apr-23 19:33N 51°19' E 004°19'0 0.0
2016-Apr-23 18:33N 51°19' E 004°19'1 1.3
2016-Apr-23 17:33N 51°20' E 004°18'0 0.5
2016-Apr-23 16:34N 51°21' E 004°17'1 0.8
2016-Apr-23 15:33N 51°21' E 004°16'7 7.2
2016-Apr-23 14:33N 51°22' E 004°05'7 6.9
2016-Apr-23 13:33N 51°21' E 003°54'1111.0
2016-Apr-23 12:34N 51°26' E 003°38'1212.0
2016-Apr-23 11:34N 51°24' E 003°19'1212.3
2016-Apr-23 10:33N 51°27' E 002°59'1817.6
2016-Apr-23 09:33N 51°42' E 003°13'6 6.1
2016-Apr-23 08:33N 51°48' E 003°16'1514.3
2016-Apr-23 07:32N 52°02' E 003°21'2019.9
2016-Apr-23 06:33N 52°21' E 003°26'4118.8
2016-Apr-23 04:23N 52°56' E 004°00'1619.3
2016-Apr-23 03:33N 53°07' E 004°20'2419.7
2016-Apr-23 02:22N 53°28' E 004°38'1822.6
2016-Apr-23 01:33N 53°35' E 005°06'2222.3
2016-Apr-23 00:33N 53°42' E 005°42'2221.5
2016-Apr-22 23:33N 53°49' E 006°16'2020.5
2016-Apr-22 22:33N 53°54' E 006°50'2019.8
2016-Apr-22 21:33N 53°58' E 007°23'2019.7
2016-Apr-22 20:33N 54°01' E 007°56'1312.8
2016-Apr-22 19:34N 53°60' E 008°18'1716.6
2016-Apr-22 18:34N 53°53' E 008°43'1716.5
2016-Apr-22 17:34N 53°53' E 009°11'1515.2
2016-Apr-22 16:34N 53°42' E 009°30'1110.9
2016-Apr-22 15:33N 53°34' E 009°42'8 7.7
2016-Apr-22 14:33N 53°32' E 009°54'0 0.0
2016-Apr-22 13:33N 53°32' E 009°54'0 0.0
2016-Apr-22 12:33N 53°32' E 009°54'0 0.0
2016-Apr-22 11:33N 53°32' E 009°54'0 0.0
2016-Apr-22 10:33N 53°32' E 009°54'0 0.0
2016-Apr-22 09:33N 53°32' E 009°54'0 0.0
2016-Apr-22 08:33N 53°32' E 009°54'0 0.0
2016-Apr-22 07:33N 53°32' E 009°54'0 0.0
2016-Apr-22 06:33N 53°32' E 009°54'0 0.0
2016-Apr-22 05:33N 53°32' E 009°54'0 0.0
2016-Apr-22 04:33N 53°32' E 009°54'0 0.0
2016-Apr-22 03:33N 53°32' E 009°54'0 0.0
2016-Apr-22 02:33N 53°32' E 009°54'0 0.0
2016-Apr-22 01:33N 53°32' E 009°54'0 0.0
2016-Apr-22 00:33N 53°32' E 009°54'0 0.0
2016-Apr-21 23:33N 53°32' E 009°54'0 0.0
2016-Apr-21 22:33N 53°32' E 009°54'0 0.0
2016-Apr-21 21:33N 53°32' E 009°54'0 0.0
2016-Apr-21 20:33N 53°32' E 009°54'0 0.0
2016-Apr-21 19:33N 53°32' E 009°54'0 0.0
2016-Apr-21 18:33N 53°32' E 009°54'0 0.0
2016-Apr-21 17:33N 53°32' E 009°54'0 0.0
2016-Apr-21 16:33N 53°32' E 009°54'3 3.0
2016-Apr-21 15:33N 53°33' E 009°49'8 8.3
2016-Apr-21 14:33N 53°36' E 009°36'1110.5
2016-Apr-21 13:33N 53°44' E 009°26'  

Dump ship's entire track history